Terminal Aerodrome Forecast
Issued by NWS Sterling, VA

Home | Current Version | Previous Version | Text Only | Print | Product List | Glossary On
Versions: 1 2 3 4 5 6 7 8 9 10 11 12 13 14
000
FTUS41 KLWX 161100
TAFCHO
TAF
KCHO 161139Z 1612/1712 00000KT 2SM BR SCT060
     FM161300 VRB03KT 6SM BR BKN050
     FM161400 32004KT P6SM SCT060
     FM170300 03004KT P6SM SCT030=

USA.gov is the U.S. government's official web portal to all federal, state and local government web resources and services.